DAL773 KJFK-KLAX
Flight info
| Callsign | DAL773 |
|---|---|
| Flight time | 5h 31m |
| Altitude | 40000 |
| Route | DEEZZ6 CANDR J60 DJB CPONE JOT J60 HVE PROMT Q88 HAKMN ANJLL4 |
| Aircraft | A359/H-SDE2E3GHIJ1J3J4J5LM1ORWXY/LB1D1 |
Departure
| Time | 2026-05-05 16:53 |
|---|---|
| Airport | John F. Kennedy International Airport (KJFK) |
Arrival
| Time | 2026-05-05 22:24 |
|---|---|
| Airport | Los Angeles International Airport (KLAX) |
| Time | Latitude | Longitude | Altitude | Speed | Heading |
|---|---|---|---|---|---|
| 2026-05-05 16:14 | 40.63922 | -73.78206 | 29 ft | 0 kts | 72° |
| 2026-05-05 16:37 | 40.63920 | -73.78215 | 29 ft | 4 kts | 72° |
| 2026-05-05 16:37 | 40.63912 | -73.78249 | 29 ft | 4 kts | 72° |
| 2026-05-05 16:37 | 40.63905 | -73.78276 | 29 ft | 4 kts | 83° |
| 2026-05-05 16:37 | 40.63909 | -73.78306 | 28 ft | 4 kts | 135° |
| 2026-05-05 16:38 | 40.63919 | -73.78316 | 26 ft | 0 kts | 150° |
| 2026-05-05 16:38 | 40.63895 | -73.78302 | 26 ft | 4 kts | 159° |
| 2026-05-05 16:38 | 40.63870 | -73.78295 | 29 ft | 2 kts | 173° |
| 2026-05-05 16:38 | 40.63848 | -73.78292 | 29 ft | 4 kts | 173° |
| 2026-05-05 16:39 | 40.63827 | -73.78288 | 29 ft | 0 kts | 173° |
| 2026-05-05 16:41 | 40.63818 | -73.78287 | 29 ft | 3 kts | 173° |
| 2026-05-05 16:42 | 40.63783 | -73.78281 | 29 ft | 7 kts | 173° |
| 2026-05-05 16:42 | 40.63729 | -73.78273 | 29 ft | 8 kts | 173° |
| 2026-05-05 16:42 | 40.63666 | -73.78264 | 29 ft | 10 kts | 174° |
| 2026-05-05 16:42 | 40.63595 | -73.78259 | 29 ft | 11 kts | 186° |
| 2026-05-05 16:43 | 40.63532 | -73.78272 | 31 ft | 6 kts | 164° |
| 2026-05-05 16:43 | 40.63497 | -73.78229 | 31 ft | 8 kts | 129° |
| 2026-05-05 16:43 | 40.63460 | -73.78154 | 31 ft | 11 kts | 121° |
| 2026-05-05 16:43 | 40.63417 | -73.78060 | 30 ft | 14 kts | 121° |
| 2026-05-05 16:44 | 40.63383 | -73.77945 | 30 ft | 12 kts | 71° |
| 2026-05-05 16:44 | 40.63451 | -73.77869 | 30 ft | 14 kts | 30° |
| 2026-05-05 16:44 | 40.63544 | -73.77797 | 28 ft | 18 kts | 30° |
| 2026-05-05 16:44 | 40.63659 | -73.77706 | 31 ft | 20 kts | 32° |
| 2026-05-05 16:45 | 40.63784 | -73.77606 | 28 ft | 22 kts | 28° |
| 2026-05-05 16:45 | 40.63921 | -73.77503 | 27 ft | 23 kts | 30° |
| 2026-05-05 16:45 | 40.64060 | -73.77397 | 28 ft | 24 kts | 31° |
| 2026-05-05 16:45 | 40.64201 | -73.77286 | 31 ft | 24 kts | 31° |
| 2026-05-05 16:46 | 40.64335 | -73.77181 | 29 ft | 11 kts | 31° |
| 2026-05-05 16:46 | 40.64397 | -73.77129 | 29 ft | 10 kts | 37° |
| 2026-05-05 16:46 | 40.64425 | -73.77043 | 27 ft | 12 kts | 71° |
| 2026-05-05 16:46 | 40.64501 | -73.76986 | 29 ft | 14 kts | 21° |
| 2026-05-05 16:47 | 40.64596 | -73.76919 | 29 ft | 16 kts | 31° |
| 2026-05-05 16:47 | 40.64702 | -73.76835 | 27 ft | 19 kts | 31° |
| 2026-05-05 16:47 | 40.64817 | -73.76745 | 30 ft | 19 kts | 30° |
| 2026-05-05 16:47 | 40.64931 | -73.76657 | 27 ft | 20 kts | 30° |
| 2026-05-05 16:48 | 40.65052 | -73.76564 | 27 ft | 15 kts | 32° |
| 2026-05-05 16:48 | 40.65090 | -73.76524 | 28 ft | 5 kts | 53° |
| 2026-05-05 16:48 | 40.65092 | -73.76483 | 28 ft | 5 kts | 102° |
| 2026-05-05 16:48 | 40.65080 | -73.76439 | 29 ft | 5 kts | 114° |
| 2026-05-05 16:49 | 40.65061 | -73.76393 | 29 ft | 7 kts | 120° |
| 2026-05-05 16:49 | 40.65022 | -73.76367 | 29 ft | 6 kts | 183° |
| 2026-05-05 16:49 | 40.64994 | -73.76380 | 28 ft | 7 kts | 205° |
| 2026-05-05 16:49 | 40.64964 | -73.76402 | 28 ft | 0 kts | 211° |
| 2026-05-05 16:50 | 40.64965 | -73.76402 | 29 ft | 0 kts | 211° |
| 2026-05-05 16:52 | 40.64960 | -73.76406 | 29 ft | 8 kts | 211° |
| 2026-05-05 16:52 | 40.64706 | -73.76602 | 27 ft | 76 kts | 210° |
| 2026-05-05 16:52 | 40.64075 | -73.77096 | 30 ft | 133 kts | 210° |
| 2026-05-05 16:52 | 40.63170 | -73.77792 | 360 ft | 153 kts | 208° |
| 2026-05-05 16:53 | 40.62251 | -73.78435 | 1059 ft | 150 kts | 209° |
| 2026-05-05 16:53 | 40.61294 | -73.79090 | 1602 ft | 162 kts | 209° |
| 2026-05-05 16:53 | 40.60099 | -73.79217 | 1908 ft | 193 kts | 173° |
| 2026-05-05 16:53 | 40.58849 | -73.78220 | 2171 ft | 233 kts | 137° |
| 2026-05-05 16:54 | 40.58034 | -73.76223 | 2439 ft | 266 kts | 106° |
| 2026-05-05 16:54 | 40.58025 | -73.73720 | 2893 ft | 283 kts | 76° |
| 2026-05-05 16:54 | 40.58875 | -73.71380 | 3579 ft | 286 kts | 52° |
| 2026-05-05 16:54 | 40.60120 | -73.69316 | 4290 ft | 290 kts | 48° |
| 2026-05-05 16:55 | 40.61447 | -73.67297 | 4975 ft | 295 kts | 47° |
| 2026-05-05 16:55 | 40.62819 | -73.65246 | 5658 ft | 301 kts | 47° |
| 2026-05-05 16:55 | 40.64234 | -73.63184 | 6353 ft | 307 kts | 47° |
| 2026-05-05 16:55 | 40.65686 | -73.61100 | 7085 ft | 311 kts | 47° |
| 2026-05-05 16:56 | 40.67250 | -73.59112 | 7821 ft | 314 kts | 33° |
| 2026-05-05 16:56 | 40.69226 | -73.57961 | 8607 ft | 310 kts | 7° |
| 2026-05-05 16:56 | 40.71355 | -73.57600 | 9389 ft | 310 kts | 358° |
| 2026-05-05 16:56 | 40.73517 | -73.57413 | 10157 ft | 313 kts | 357° |
| 2026-05-05 16:57 | 40.75749 | -73.57233 | 10625 ft | 330 kts | 357° |
| 2026-05-05 16:57 | 40.78099 | -73.57174 | 10964 ft | 343 kts | 349° |
| 2026-05-05 16:57 | 40.79664 | -73.57529 | 11152 ft | 347 kts | 337° |
| 2026-05-05 16:57 | 40.82691 | -73.59135 | 11844 ft | 355 kts | 328° |
| 2026-05-05 16:58 | 40.84935 | -73.60539 | 12568 ft | 358 kts | 327° |
| 2026-05-05 16:58 | 40.87176 | -73.61971 | 13362 ft | 359 kts | 327° |
| 2026-05-05 16:58 | 40.89426 | -73.63420 | 14106 ft | 361 kts | 327° |
| 2026-05-05 16:58 | 40.91693 | -73.64889 | 14738 ft | 365 kts | 327° |
| 2026-05-05 16:59 | 40.93984 | -73.66377 | 15341 ft | 370 kts | 327° |
| 2026-05-05 16:59 | 40.96306 | -73.67889 | 15957 ft | 373 kts | 328° |
| 2026-05-05 16:59 | 40.98648 | -73.69414 | 16592 ft | 377 kts | 328° |
| 2026-05-05 16:59 | 41.01009 | -73.70954 | 17214 ft | 380 kts | 328° |
| 2026-05-05 17:00 | 41.03364 | -73.72492 | 17860 ft | 384 kts | 328° |
| 2026-05-05 17:00 | 41.05774 | -73.74067 | 18430 ft | 389 kts | 328° |
| 2026-05-05 17:00 | 41.08119 | -73.75849 | 18963 ft | 388 kts | 320° |
| 2026-05-05 17:00 | 41.10117 | -73.78212 | 19533 ft | 384 kts | 307° |
| 2026-05-05 17:01 | 41.11597 | -73.81128 | 20123 ft | 381 kts | 292° |
| 2026-05-05 17:01 | 41.12435 | -73.84450 | 20677 ft | 381 kts | 282° |
| 2026-05-05 17:01 | 41.13053 | -73.87884 | 21246 ft | 385 kts | 281° |
| 2026-05-05 17:01 | 41.13635 | -73.91372 | 21811 ft | 389 kts | 280° |
| 2026-05-05 17:02 | 41.14210 | -73.94893 | 22373 ft | 393 kts | 280° |
| 2026-05-05 17:02 | 41.14786 | -73.98451 | 22926 ft | 396 kts | 280° |
| 2026-05-05 17:02 | 41.15365 | -74.02045 | 23472 ft | 401 kts | 280° |
| 2026-05-05 17:02 | 41.15949 | -74.05683 | 23933 ft | 404 kts | 280° |
| 2026-05-05 17:03 | 41.16534 | -74.09339 | 24400 ft | 408 kts | 280° |
| 2026-05-05 17:03 | 41.17115 | -74.13034 | 24861 ft | 410 kts | 279° |
| 2026-05-05 17:03 | 41.17514 | -74.16800 | 25337 ft | 413 kts | 275° |
| 2026-05-05 17:03 | 41.17834 | -74.20599 | 25805 ft | 416 kts | 275° |
| 2026-05-05 17:04 | 41.18164 | -74.24426 | 26273 ft | 419 kts | 276° |
| 2026-05-05 17:04 | 41.18510 | -74.28278 | 26745 ft | 422 kts | 276° |
| 2026-05-05 17:04 | 41.18866 | -74.32168 | 27180 ft | 425 kts | 276° |
| 2026-05-05 17:04 | 41.19228 | -74.36087 | 27627 ft | 429 kts | 276° |
| 2026-05-05 17:05 | 41.19474 | -74.40042 | 28071 ft | 431 kts | 271° |
| 2026-05-05 17:05 | 41.19302 | -74.44025 | 28505 ft | 435 kts | 262° |
| 2026-05-05 17:05 | 41.18623 | -74.47951 | 28910 ft | 439 kts | 253° |
| 2026-05-05 17:05 | 41.17434 | -74.51707 | 29283 ft | 445 kts | 244° |
| 2026-05-05 17:06 | 41.15879 | -74.55279 | 29691 ft | 449 kts | 241° |
| 2026-05-05 17:06 | 41.14240 | -74.58830 | 30062 ft | 452 kts | 241° |
| 2026-05-05 17:06 | 41.12593 | -74.62390 | 30386 ft | 455 kts | 241° |
| 2026-05-05 17:06 | 41.10937 | -74.65979 | 30730 ft | 457 kts | 241° |
| 2026-05-05 17:07 | 41.09279 | -74.69579 | 31071 ft | 458 kts | 240° |
| 2026-05-05 17:07 | 41.07616 | -74.73192 | 31385 ft | 460 kts | 240° |
| 2026-05-05 17:07 | 41.05943 | -74.76824 | 31687 ft | 462 kts | 240° |
| 2026-05-05 17:07 | 41.04266 | -74.80464 | 32001 ft | 464 kts | 240° |
| 2026-05-05 17:08 | 41.02602 | -74.84071 | 32286 ft | 465 kts | 240° |
| 2026-05-05 17:08 | 41.00909 | -74.87738 | 32609 ft | 466 kts | 240° |
| 2026-05-05 17:08 | 40.99222 | -74.91387 | 33049 ft | 464 kts | 240° |
| 2026-05-05 17:08 | 40.97630 | -74.95092 | 33427 ft | 462 kts | 245° |
| 2026-05-05 17:09 | 40.96398 | -74.99007 | 33800 ft | 459 kts | 252° |
| 2026-05-05 17:09 | 40.95385 | -75.03009 | 34131 ft | 458 kts | 253° |
| 2026-05-05 17:09 | 40.94441 | -75.07029 | 34470 ft | 457 kts | 254° |
| 2026-05-05 17:09 | 40.93531 | -75.11035 | 34928 ft | 452 kts | 254° |
| 2026-05-05 17:10 | 40.92634 | -75.15003 | 35278 ft | 450 kts | 254° |
| 2026-05-05 17:10 | 40.91734 | -75.18961 | 35549 ft | 450 kts | 254° |
| 2026-05-05 17:10 | 40.90940 | -75.22416 | 35769 ft | 449 kts | 254° |
| 2026-05-05 17:10 | 40.90025 | -75.26363 | 36027 ft | 449 kts | 253° |
| 2026-05-05 17:11 | 40.89104 | -75.30303 | 36298 ft | 448 kts | 253° |
| 2026-05-05 17:11 | 40.88180 | -75.34239 | 36580 ft | 447 kts | 253° |
| 2026-05-05 17:11 | 40.87270 | -75.38103 | 36807 ft | 447 kts | 253° |
| 2026-05-05 17:11 | 40.86348 | -75.42019 | 37058 ft | 446 kts | 253° |
| 2026-05-05 17:12 | 40.85427 | -75.45924 | 37360 ft | 444 kts | 253° |
| 2026-05-05 17:12 | 40.84507 | -75.49808 | 37610 ft | 443 kts | 253° |
| 2026-05-05 17:12 | 40.83585 | -75.53690 | 37800 ft | 443 kts | 253° |
| 2026-05-05 17:12 | 40.82661 | -75.57576 | 37996 ft | 443 kts | 253° |
| 2026-05-05 17:13 | 40.81740 | -75.61445 | 38197 ft | 442 kts | 253° |
| 2026-05-05 17:13 | 40.80815 | -75.65323 | 38397 ft | 442 kts | 253° |
| 2026-05-05 17:13 | 40.79893 | -75.69188 | 38582 ft | 441 kts | 253° |
| 2026-05-05 17:13 | 40.78968 | -75.73056 | 38717 ft | 441 kts | 253° |
| 2026-05-05 17:14 | 40.78042 | -75.76923 | 38843 ft | 441 kts | 253° |
| 2026-05-05 17:14 | 40.77117 | -75.80781 | 38975 ft | 441 kts | 253° |
| 2026-05-05 17:14 | 40.76191 | -75.84634 | 39112 ft | 441 kts | 253° |
| 2026-05-05 17:14 | 40.75265 | -75.88486 | 39216 ft | 441 kts | 253° |
| 2026-05-05 17:15 | 40.74337 | -75.92339 | 39319 ft | 441 kts | 253° |
| 2026-05-05 17:15 | 40.73405 | -75.96199 | 39435 ft | 441 kts | 253° |
| 2026-05-05 17:15 | 40.72473 | -76.00053 | 39546 ft | 441 kts | 253° |
| 2026-05-05 17:15 | 40.71536 | -76.03920 | 39650 ft | 441 kts | 253° |
| 2026-05-05 17:16 | 40.69661 | -76.11645 | 39789 ft | 443 kts | 253° |
| 2026-05-05 17:16 | 40.67891 | -76.19427 | 39917 ft | 444 kts | 258° |
| 2026-05-05 17:17 | 40.67385 | -76.27495 | 39927 ft | 443 kts | 273° |
| 2026-05-05 17:17 | 40.68294 | -76.35537 | 39926 ft | 444 kts | 279° |
| 2026-05-05 17:18 | 40.69504 | -76.43526 | 39928 ft | 445 kts | 280° |
| 2026-05-05 17:18 | 40.70737 | -76.51510 | 39926 ft | 444 kts | 280° |
| 2026-05-05 17:19 | 40.71928 | -76.59429 | 39904 ft | 443 kts | 279° |
| 2026-05-05 17:19 | 40.73101 | -76.67391 | 39896 ft | 442 kts | 279° |
| 2026-05-05 17:20 | 40.74264 | -76.75354 | 39878 ft | 442 kts | 279° |
| 2026-05-05 17:20 | 40.75421 | -76.83317 | 39861 ft | 442 kts | 279° |
| 2026-05-05 17:21 | 40.76574 | -76.91284 | 39851 ft | 441 kts | 279° |
| 2026-05-05 17:22 | 40.78289 | -77.03199 | 39847 ft | 440 kts | 279° |
| 2026-05-05 17:22 | 40.79424 | -77.11136 | 39846 ft | 440 kts | 279° |
| 2026-05-05 17:23 | 40.80552 | -77.19066 | 39854 ft | 440 kts | 279° |
| 2026-05-05 17:23 | 40.81673 | -77.26996 | 39854 ft | 439 kts | 279° |
| 2026-05-05 17:24 | 40.82791 | -77.34935 | 39850 ft | 439 kts | 279° |
| 2026-05-05 17:24 | 40.83899 | -77.42851 | 39849 ft | 438 kts | 279° |
| 2026-05-05 17:25 | 40.85003 | -77.50769 | 39856 ft | 438 kts | 279° |
| 2026-05-05 17:25 | 40.86099 | -77.58687 | 39842 ft | 438 kts | 279° |
| 2026-05-05 17:26 | 40.87180 | -77.66529 | 39845 ft | 433 kts | 279° |
| 2026-05-05 17:26 | 40.88256 | -77.74341 | 39843 ft | 431 kts | 279° |
| 2026-05-05 17:27 | 40.89317 | -77.82132 | 39862 ft | 431 kts | 279° |
| 2026-05-05 17:27 | 40.90196 | -77.88620 | 39861 ft | 430 kts | 279° |
| 2026-05-05 17:28 | 40.91246 | -77.96407 | 39866 ft | 430 kts | 279° |
| 2026-05-05 17:28 | 40.92275 | -78.04160 | 39854 ft | 425 kts | 279° |
| 2026-05-05 17:29 | 40.93220 | -78.11856 | 39851 ft | 423 kts | 278° |
| 2026-05-05 17:29 | 40.94151 | -78.19550 | 39844 ft | 423 kts | 278° |
| 2026-05-05 17:30 | 40.95087 | -78.27238 | 39847 ft | 423 kts | 278° |
| 2026-05-05 17:30 | 40.96023 | -78.34927 | 39850 ft | 423 kts | 278° |
| 2026-05-05 17:31 | 40.96957 | -78.42617 | 39850 ft | 423 kts | 278° |
| 2026-05-05 17:31 | 40.97880 | -78.50264 | 39853 ft | 424 kts | 278° |
| 2026-05-05 17:32 | 40.98803 | -78.57970 | 39845 ft | 424 kts | 278° |
| 2026-05-05 17:32 | 40.99722 | -78.65682 | 39843 ft | 424 kts | 278° |
| 2026-05-05 17:33 | 41.00636 | -78.73403 | 39835 ft | 425 kts | 278° |
| 2026-05-05 17:33 | 41.01551 | -78.81185 | 39837 ft | 429 kts | 278° |
| 2026-05-05 17:34 | 41.02466 | -78.89000 | 39839 ft | 429 kts | 278° |
| 2026-05-05 17:34 | 41.03374 | -78.96800 | 39846 ft | 428 kts | 278° |
| 2026-05-05 17:35 | 41.04275 | -79.04599 | 39840 ft | 428 kts | 278° |
| 2026-05-05 17:35 | 41.05169 | -79.12382 | 39836 ft | 426 kts | 278° |
| 2026-05-05 17:36 | 41.06050 | -79.20093 | 39834 ft | 426 kts | 278° |
| 2026-05-05 17:36 | 41.06929 | -79.27847 | 39826 ft | 425 kts | 278° |
| 2026-05-05 17:37 | 41.07803 | -79.35601 | 39826 ft | 426 kts | 278° |
| 2026-05-05 17:37 | 41.08674 | -79.43362 | 39842 ft | 425 kts | 278° |
| 2026-05-05 17:38 | 41.09537 | -79.51101 | 39826 ft | 423 kts | 278° |
| 2026-05-05 17:38 | 41.10392 | -79.58820 | 39831 ft | 423 kts | 278° |
| 2026-05-05 17:39 | 41.11241 | -79.66537 | 39832 ft | 423 kts | 278° |
| 2026-05-05 17:39 | 41.12084 | -79.74253 | 39838 ft | 423 kts | 278° |
| 2026-05-05 17:40 | 41.12923 | -79.81975 | 39841 ft | 422 kts | 278° |
| 2026-05-05 17:40 | 41.13746 | -79.89604 | 39838 ft | 419 kts | 278° |
| 2026-05-05 17:41 | 41.14568 | -79.97265 | 39837 ft | 419 kts | 278° |
| 2026-05-05 17:41 | 41.15386 | -80.04930 | 39843 ft | 419 kts | 278° |
| 2026-05-05 17:42 | 41.16196 | -80.12589 | 39843 ft | 419 kts | 278° |
| 2026-05-05 17:42 | 41.16951 | -80.19755 | 39845 ft | 418 kts | 278° |
| 2026-05-05 17:43 | 41.17745 | -80.27357 | 39848 ft | 415 kts | 278° |
| 2026-05-05 17:43 | 41.18531 | -80.34936 | 39844 ft | 414 kts | 278° |
| 2026-05-05 17:44 | 41.19308 | -80.42466 | 39844 ft | 414 kts | 278° |
| 2026-05-05 17:44 | 41.20089 | -80.50043 | 39834 ft | 414 kts | 278° |
| 2026-05-05 17:45 | 41.20858 | -80.57617 | 39843 ft | 413 kts | 278° |
| 2026-05-05 17:45 | 41.21617 | -80.65155 | 39845 ft | 410 kts | 278° |
| 2026-05-05 17:46 | 41.22370 | -80.72660 | 39837 ft | 410 kts | 278° |
| 2026-05-05 17:46 | 41.23119 | -80.80162 | 39843 ft | 410 kts | 278° |
| 2026-05-05 17:47 | 41.23862 | -80.87673 | 39836 ft | 410 kts | 278° |
| 2026-05-05 17:47 | 41.24600 | -80.95171 | 39827 ft | 408 kts | 278° |
| 2026-05-05 17:48 | 41.25330 | -81.02635 | 39836 ft | 406 kts | 278° |
| 2026-05-05 17:48 | 41.26054 | -81.10086 | 39846 ft | 406 kts | 278° |
| 2026-05-05 17:49 | 41.26770 | -81.17529 | 39855 ft | 406 kts | 278° |
| 2026-05-05 17:49 | 41.27483 | -81.24973 | 39844 ft | 406 kts | 278° |
| 2026-05-05 17:50 | 41.28191 | -81.32419 | 39842 ft | 405 kts | 278° |
| 2026-05-05 17:50 | 41.28887 | -81.39780 | 39841 ft | 403 kts | 278° |
| 2026-05-05 17:51 | 41.29581 | -81.47184 | 39832 ft | 403 kts | 278° |
| 2026-05-05 17:51 | 41.30271 | -81.54586 | 39824 ft | 403 kts | 278° |
| 2026-05-05 17:52 | 41.30954 | -81.61989 | 39810 ft | 403 kts | 278° |
| 2026-05-05 17:52 | 41.31633 | -81.69396 | 39821 ft | 402 kts | 278° |
| 2026-05-05 17:53 | 41.32303 | -81.76762 | 39839 ft | 401 kts | 278° |
| 2026-05-05 17:53 | 41.32968 | -81.84116 | 39826 ft | 400 kts | 278° |
| 2026-05-05 17:54 | 41.33628 | -81.91475 | 39829 ft | 400 kts | 278° |
| 2026-05-05 17:54 | 41.34279 | -81.98782 | 39831 ft | 400 kts | 278° |
| 2026-05-05 17:55 | 41.34930 | -82.06150 | 39861 ft | 400 kts | 278° |
| 2026-05-05 17:55 | 41.35577 | -82.13511 | 39859 ft | 400 kts | 278° |
| 2026-05-05 17:56 | 41.36174 | -82.20874 | 39865 ft | 400 kts | 276° |
| 2026-05-05 17:56 | 41.36590 | -82.28272 | 39863 ft | 401 kts | 275° |
| 2026-05-05 17:57 | 41.36980 | -82.35675 | 39860 ft | 401 kts | 276° |
| 2026-05-05 17:57 | 41.37392 | -82.43074 | 39837 ft | 399 kts | 276° |
| 2026-05-05 17:58 | 41.37776 | -82.49789 | 39826 ft | 397 kts | 276° |
| 2026-05-05 17:58 | 41.38195 | -82.57119 | 39807 ft | 397 kts | 276° |
| 2026-05-05 17:59 | 41.38608 | -82.64447 | 39820 ft | 397 kts | 276° |
| 2026-05-05 17:59 | 41.39016 | -82.71785 | 39806 ft | 397 kts | 276° |
| 2026-05-05 18:00 | 41.39418 | -82.79115 | 39816 ft | 397 kts | 276° |
| 2026-05-05 18:00 | 41.39815 | -82.86426 | 39820 ft | 394 kts | 276° |
| 2026-05-05 18:01 | 41.40205 | -82.93701 | 39820 ft | 394 kts | 275° |
| 2026-05-05 18:01 | 41.40591 | -83.00980 | 39825 ft | 394 kts | 275° |
| 2026-05-05 18:02 | 41.40972 | -83.08261 | 39823 ft | 394 kts | 275° |
| 2026-05-05 18:02 | 41.41349 | -83.15545 | 39824 ft | 394 kts | 275° |
| 2026-05-05 18:03 | 41.41721 | -83.22814 | 39829 ft | 393 kts | 275° |
| 2026-05-05 18:03 | 41.42087 | -83.30074 | 39832 ft | 392 kts | 275° |
| 2026-05-05 18:04 | 41.42449 | -83.37337 | 39843 ft | 392 kts | 275° |
| 2026-05-05 18:04 | 41.42806 | -83.44592 | 39841 ft | 392 kts | 275° |
| 2026-05-05 18:05 | 41.43158 | -83.51849 | 39846 ft | 392 kts | 275° |
| 2026-05-05 18:05 | 41.43506 | -83.59106 | 39849 ft | 392 kts | 275° |
| 2026-05-05 18:06 | 41.43847 | -83.66316 | 39839 ft | 392 kts | 275° |
| 2026-05-05 18:06 | 41.44185 | -83.73572 | 39844 ft | 392 kts | 275° |
| 2026-05-05 18:07 | 41.44519 | -83.80821 | 39839 ft | 392 kts | 275° |
| 2026-05-05 18:07 | 41.44848 | -83.88072 | 39838 ft | 392 kts | 275° |
| 2026-05-05 18:08 | 41.45172 | -83.95323 | 39841 ft | 392 kts | 275° |
| 2026-05-05 18:08 | 41.45492 | -84.02567 | 39844 ft | 391 kts | 275° |
| 2026-05-05 18:09 | 41.45807 | -84.09816 | 39851 ft | 391 kts | 274° |
| 2026-05-05 18:09 | 41.46115 | -84.17013 | 39851 ft | 391 kts | 274° |
| 2026-05-05 18:10 | 41.46423 | -84.24299 | 39854 ft | 391 kts | 274° |
| 2026-05-05 18:10 | 41.46725 | -84.31547 | 39840 ft | 391 kts | 274° |
| 2026-05-05 18:11 | 41.47021 | -84.38788 | 39880 ft | 391 kts | 274° |
| 2026-05-05 18:11 | 41.47311 | -84.45990 | 39881 ft | 391 kts | 274° |
| 2026-05-05 18:12 | 41.47599 | -84.53231 | 39871 ft | 391 kts | 274° |
| 2026-05-05 18:12 | 41.47882 | -84.60479 | 39874 ft | 391 kts | 274° |
| 2026-05-05 18:13 | 41.48161 | -84.67728 | 39871 ft | 391 kts | 274° |
| 2026-05-05 18:13 | 41.48389 | -84.73757 | 39867 ft | 391 kts | 274° |
| 2026-05-05 18:14 | 41.48702 | -84.82174 | 39860 ft | 391 kts | 274° |
| 2026-05-05 18:14 | 41.48967 | -84.89416 | 39874 ft | 391 kts | 274° |
| 2026-05-05 18:15 | 41.49227 | -84.96653 | 39862 ft | 391 kts | 274° |
| 2026-05-05 18:15 | 41.49441 | -85.02721 | 39872 ft | 391 kts | 274° |
| 2026-05-05 18:16 | 41.49691 | -85.09908 | 39878 ft | 390 kts | 274° |
| 2026-05-05 18:16 | 41.49938 | -85.17138 | 39879 ft | 390 kts | 274° |
| 2026-05-05 18:17 | 41.50180 | -85.24363 | 39874 ft | 390 kts | 274° |
| 2026-05-05 18:17 | 41.50418 | -85.31585 | 39872 ft | 390 kts | 274° |
| 2026-05-05 18:18 | 41.50651 | -85.38814 | 39863 ft | 390 kts | 274° |
| 2026-05-05 18:18 | 41.50879 | -85.46040 | 39873 ft | 389 kts | 274° |
| 2026-05-05 18:19 | 41.51102 | -85.53245 | 39886 ft | 389 kts | 274° |
| 2026-05-05 18:19 | 41.51321 | -85.60451 | 39890 ft | 389 kts | 274° |
| 2026-05-05 18:20 | 41.51536 | -85.67654 | 39894 ft | 388 kts | 274° |
| 2026-05-05 18:20 | 41.51745 | -85.74862 | 39885 ft | 388 kts | 274° |
| 2026-05-05 18:21 | 41.51951 | -85.82063 | 39879 ft | 389 kts | 274° |
| 2026-05-05 18:21 | 41.52151 | -85.89269 | 39891 ft | 389 kts | 274° |
| 2026-05-05 18:22 | 41.52347 | -85.96428 | 39887 ft | 389 kts | 274° |
| 2026-05-05 18:22 | 41.52539 | -86.03645 | 39887 ft | 388 kts | 274° |
| 2026-05-05 18:23 | 41.52692 | -86.10858 | 39881 ft | 389 kts | 273° |
| 2026-05-05 18:23 | 41.52811 | -86.18066 | 39871 ft | 389 kts | 273° |
| 2026-05-05 18:24 | 41.52929 | -86.25272 | 39891 ft | 388 kts | 273° |
| 2026-05-05 18:24 | 41.53049 | -86.32455 | 39894 ft | 387 kts | 273° |
| 2026-05-05 18:25 | 41.53166 | -86.39639 | 39884 ft | 387 kts | 273° |
| 2026-05-05 18:25 | 41.53280 | -86.46820 | 39889 ft | 387 kts | 273° |
| 2026-05-05 18:26 | 41.53388 | -86.54003 | 39882 ft | 387 kts | 273° |
| 2026-05-05 18:26 | 41.53492 | -86.61186 | 39893 ft | 386 kts | 273° |
| 2026-05-05 18:27 | 41.53591 | -86.68349 | 39889 ft | 386 kts | 273° |
| 2026-05-05 18:27 | 41.53685 | -86.75504 | 39881 ft | 386 kts | 273° |
| 2026-05-05 18:28 | 41.53819 | -86.86237 | 39880 ft | 386 kts | 273° |
| 2026-05-05 18:28 | 41.53903 | -86.93392 | 39892 ft | 386 kts | 273° |
| 2026-05-05 18:29 | 41.53982 | -87.00553 | 39893 ft | 386 kts | 272° |
| 2026-05-05 18:29 | 41.54057 | -87.07707 | 39900 ft | 385 kts | 272° |
| 2026-05-05 18:30 | 41.54126 | -87.14858 | 39897 ft | 385 kts | 272° |
| 2026-05-05 18:30 | 41.54192 | -87.22012 | 39884 ft | 385 kts | 272° |
| 2026-05-05 18:31 | 41.54253 | -87.29167 | 39880 ft | 385 kts | 272° |
| 2026-05-05 18:31 | 41.54310 | -87.36324 | 39871 ft | 385 kts | 272° |
| 2026-05-05 18:32 | 41.54362 | -87.43457 | 39905 ft | 384 kts | 272° |
| 2026-05-05 18:32 | 41.54410 | -87.50538 | 39904 ft | 384 kts | 272° |
| 2026-05-05 18:33 | 41.54453 | -87.57667 | 39907 ft | 384 kts | 272° |
| 2026-05-05 18:33 | 41.54492 | -87.64800 | 39897 ft | 384 kts | 272° |
| 2026-05-05 18:34 | 41.54527 | -87.71932 | 39908 ft | 384 kts | 272° |
| 2026-05-05 18:34 | 41.54557 | -87.79038 | 39899 ft | 382 kts | 272° |
| 2026-05-05 18:35 | 41.54583 | -87.86124 | 39893 ft | 382 kts | 272° |
| 2026-05-05 18:35 | 41.54604 | -87.93205 | 39891 ft | 382 kts | 272° |
| 2026-05-05 18:36 | 41.54622 | -88.00303 | 39899 ft | 382 kts | 272° |
| 2026-05-05 18:36 | 41.54634 | -88.07387 | 39893 ft | 381 kts | 272° |
| 2026-05-05 18:37 | 41.54642 | -88.14458 | 39909 ft | 380 kts | 272° |
| 2026-05-05 18:37 | 41.54646 | -88.21496 | 39906 ft | 379 kts | 272° |
| 2026-05-05 18:38 | 41.54646 | -88.28543 | 39908 ft | 379 kts | 272° |
| 2026-05-05 18:38 | 41.54649 | -88.35532 | 39894 ft | 379 kts | 272° |
| 2026-05-05 18:39 | 41.54689 | -88.42562 | 39894 ft | 379 kts | 272° |
| 2026-05-05 18:39 | 41.54732 | -88.49590 | 39890 ft | 378 kts | 272° |
| 2026-05-05 18:40 | 41.54765 | -88.56599 | 39891 ft | 377 kts | 272° |
| 2026-05-05 18:40 | 41.54791 | -88.63604 | 39891 ft | 377 kts | 272° |
| 2026-05-05 18:41 | 41.54810 | -88.70606 | 39887 ft | 377 kts | 272° |
| 2026-05-05 18:41 | 41.54826 | -88.77602 | 39884 ft | 377 kts | 272° |
| 2026-05-05 18:42 | 41.54837 | -88.84097 | 39884 ft | 377 kts | 272° |
| 2026-05-05 18:42 | 41.54846 | -88.91085 | 39887 ft | 376 kts | 271° |
| 2026-05-05 18:43 | 41.54849 | -88.98058 | 39889 ft | 375 kts | 271° |
| 2026-05-05 18:43 | 41.54849 | -89.05033 | 39889 ft | 375 kts | 271° |
| 2026-05-05 18:44 | 41.54844 | -89.12000 | 39898 ft | 375 kts | 271° |
| 2026-05-05 18:44 | 41.54835 | -89.18924 | 39898 ft | 375 kts | 271° |
| 2026-05-05 18:45 | 41.54822 | -89.25891 | 39894 ft | 375 kts | 271° |
| 2026-05-05 18:45 | 41.54805 | -89.32858 | 39906 ft | 375 kts | 271° |
| 2026-05-05 18:46 | 41.54788 | -89.39811 | 39910 ft | 375 kts | 271° |
| 2026-05-05 18:46 | 41.54760 | -89.46780 | 39914 ft | 375 kts | 271° |
| 2026-05-05 18:47 | 41.54728 | -89.53732 | 39922 ft | 375 kts | 271° |
| 2026-05-05 18:47 | 41.54693 | -89.60684 | 39923 ft | 375 kts | 271° |
| 2026-05-05 18:48 | 41.54654 | -89.67597 | 39925 ft | 375 kts | 271° |
| 2026-05-05 18:48 | 41.54611 | -89.74593 | 39924 ft | 375 kts | 271° |
| 2026-05-05 18:49 | 41.54565 | -89.81502 | 39922 ft | 375 kts | 271° |
| 2026-05-05 18:49 | 41.54514 | -89.88458 | 39918 ft | 374 kts | 271° |
| 2026-05-05 18:50 | 41.54459 | -89.95408 | 39915 ft | 375 kts | 271° |
| 2026-05-05 18:50 | 41.54400 | -90.02364 | 39911 ft | 375 kts | 271° |
| 2026-05-05 18:51 | 41.54336 | -90.09321 | 39914 ft | 374 kts | 271° |
| 2026-05-05 18:51 | 41.54268 | -90.16270 | 39921 ft | 374 kts | 270° |
| 2026-05-05 18:52 | 41.54198 | -90.23230 | 39925 ft | 374 kts | 270° |
| 2026-05-05 18:52 | 41.54121 | -90.30137 | 39927 ft | 374 kts | 270° |
| 2026-05-05 18:53 | 41.54040 | -90.37085 | 39936 ft | 374 kts | 270° |
| 2026-05-05 18:53 | 41.53956 | -90.44035 | 39939 ft | 375 kts | 270° |
| 2026-05-05 18:54 | 41.53867 | -90.50989 | 39943 ft | 375 kts | 270° |
| 2026-05-05 18:54 | 41.53774 | -90.57955 | 39945 ft | 375 kts | 270° |
| 2026-05-05 18:55 | 41.53676 | -90.64914 | 39943 ft | 375 kts | 270° |
| 2026-05-05 18:55 | 41.53575 | -90.71873 | 39940 ft | 375 kts | 270° |
| 2026-05-05 18:56 | 41.53470 | -90.78837 | 39926 ft | 375 kts | 270° |
| 2026-05-05 18:56 | 41.53368 | -90.85290 | 39923 ft | 375 kts | 270° |
| 2026-05-05 18:57 | 41.53254 | -90.92250 | 39928 ft | 375 kts | 270° |
| 2026-05-05 18:57 | 41.53136 | -90.99209 | 39922 ft | 375 kts | 270° |
| 2026-05-05 18:58 | 41.53014 | -91.06162 | 39923 ft | 375 kts | 270° |
| 2026-05-05 18:58 | 41.52888 | -91.13127 | 39936 ft | 375 kts | 270° |
| 2026-05-05 18:59 | 41.52780 | -91.18906 | 39941 ft | 375 kts | 269° |
| 2026-05-05 18:59 | 41.52646 | -91.25860 | 39950 ft | 375 kts | 269° |
| 2026-05-05 19:00 | 41.52509 | -91.32818 | 39956 ft | 375 kts | 269° |
| 2026-05-05 19:00 | 41.52366 | -91.39774 | 39962 ft | 375 kts | 269° |
| 2026-05-05 19:01 | 41.52219 | -91.46723 | 39958 ft | 375 kts | 269° |
| 2026-05-05 19:01 | 41.52069 | -91.53631 | 39955 ft | 375 kts | 269° |
| 2026-05-05 19:02 | 41.51887 | -91.60584 | 39957 ft | 375 kts | 267° |
| 2026-05-05 19:02 | 41.51330 | -91.67502 | 39958 ft | 375 kts | 265° |
| 2026-05-05 19:03 | 41.50689 | -91.74415 | 39955 ft | 375 kts | 265° |
| 2026-05-05 19:03 | 41.50028 | -91.81330 | 39951 ft | 375 kts | 265° |
| 2026-05-05 19:04 | 41.49367 | -91.88238 | 39942 ft | 375 kts | 265° |
| 2026-05-05 19:04 | 41.48710 | -91.95100 | 39940 ft | 375 kts | 264° |
| 2026-05-05 19:05 | 41.48047 | -92.01999 | 39940 ft | 375 kts | 264° |
| 2026-05-05 19:05 | 41.47380 | -92.08895 | 39944 ft | 375 kts | 264° |
| 2026-05-05 19:06 | 41.46756 | -92.15304 | 39940 ft | 375 kts | 264° |
| 2026-05-05 19:06 | 41.46081 | -92.22196 | 39945 ft | 375 kts | 264° |
| 2026-05-05 19:07 | 41.45401 | -92.29088 | 39951 ft | 375 kts | 264° |
| 2026-05-05 19:07 | 41.44718 | -92.35971 | 39955 ft | 375 kts | 264° |
| 2026-05-05 19:08 | 41.44031 | -92.42861 | 39958 ft | 375 kts | 264° |
| 2026-05-05 19:08 | 41.43340 | -92.49738 | 39954 ft | 374 kts | 264° |
| 2026-05-05 19:09 | 41.42651 | -92.56567 | 39954 ft | 374 kts | 264° |
| 2026-05-05 19:09 | 41.41950 | -92.63445 | 39958 ft | 374 kts | 264° |
| 2026-05-05 19:10 | 41.41245 | -92.70320 | 39954 ft | 374 kts | 264° |
| 2026-05-05 19:10 | 41.40538 | -92.77188 | 39960 ft | 374 kts | 264° |
| 2026-05-05 19:11 | 41.39827 | -92.84046 | 39968 ft | 374 kts | 264° |
| 2026-05-05 19:11 | 41.39111 | -92.90914 | 39972 ft | 374 kts | 264° |
| 2026-05-05 19:12 | 41.38392 | -92.97772 | 39968 ft | 374 kts | 264° |
| 2026-05-05 19:12 | 41.37667 | -93.04645 | 39971 ft | 374 kts | 263° |
| 2026-05-05 19:13 | 41.36938 | -93.11515 | 39964 ft | 375 kts | 263° |
| 2026-05-05 19:13 | 41.36206 | -93.18379 | 39959 ft | 375 kts | 263° |
| 2026-05-05 19:14 | 41.35468 | -93.25243 | 39962 ft | 375 kts | 263° |
| 2026-05-05 19:14 | 41.34728 | -93.32105 | 39962 ft | 375 kts | 263° |
| 2026-05-05 19:15 | 41.33983 | -93.38967 | 39960 ft | 375 kts | 263° |
| 2026-05-05 19:15 | 41.33233 | -93.45832 | 39959 ft | 375 kts | 263° |
| 2026-05-05 19:16 | 41.32480 | -93.52696 | 39964 ft | 375 kts | 263° |
| 2026-05-05 19:16 | 41.31722 | -93.59555 | 39968 ft | 375 kts | 263° |
| 2026-05-05 19:17 | 41.30961 | -93.66413 | 39967 ft | 375 kts | 263° |
| 2026-05-05 19:17 | 41.30195 | -93.73266 | 39966 ft | 375 kts | 263° |
| 2026-05-05 19:18 | 41.29427 | -93.80116 | 39968 ft | 375 kts | 263° |
| 2026-05-05 19:18 | 41.28653 | -93.86975 | 39970 ft | 375 kts | 263° |
| 2026-05-05 19:19 | 41.27879 | -93.93797 | 39961 ft | 375 kts | 263° |
| 2026-05-05 19:19 | 41.27099 | -94.00630 | 39964 ft | 373 kts | 263° |
| 2026-05-05 19:20 | 41.26317 | -94.07442 | 39964 ft | 373 kts | 263° |
| 2026-05-05 19:20 | 41.25531 | -94.14250 | 39968 ft | 373 kts | 263° |
| 2026-05-05 19:21 | 41.24740 | -94.21064 | 39962 ft | 373 kts | 262° |
| 2026-05-05 19:21 | 41.23946 | -94.27880 | 39967 ft | 373 kts | 262° |
| 2026-05-05 19:22 | 41.23147 | -94.34692 | 39966 ft | 373 kts | 262° |
| 2026-05-05 19:22 | 41.22344 | -94.41511 | 39965 ft | 373 kts | 262° |
| 2026-05-05 19:23 | 41.21536 | -94.48327 | 39967 ft | 373 kts | 262° |
| 2026-05-05 19:23 | 41.20725 | -94.55138 | 39970 ft | 373 kts | 262° |
| 2026-05-05 19:24 | 41.19910 | -94.61951 | 39969 ft | 374 kts | 262° |
| 2026-05-05 19:24 | 41.19088 | -94.68785 | 39971 ft | 375 kts | 262° |
| 2026-05-05 19:25 | 41.18262 | -94.75616 | 39975 ft | 375 kts | 262° |
| 2026-05-05 19:25 | 41.17430 | -94.82451 | 39971 ft | 375 kts | 262° |
| 2026-05-05 19:26 | 41.16595 | -94.89293 | 39971 ft | 375 kts | 262° |
| 2026-05-05 19:26 | 41.15760 | -94.96089 | 39976 ft | 375 kts | 262° |
| 2026-05-05 19:27 | 41.14916 | -95.02930 | 39978 ft | 376 kts | 261° |
| 2026-05-05 19:27 | 41.14067 | -95.09769 | 39981 ft | 376 kts | 261° |
| 2026-05-05 19:28 | 41.13268 | -95.16180 | 39983 ft | 376 kts | 261° |
| 2026-05-05 19:28 | 41.12411 | -95.23023 | 39983 ft | 376 kts | 261° |
| 2026-05-05 19:29 | 41.11551 | -95.29857 | 39980 ft | 376 kts | 261° |
| 2026-05-05 19:29 | 41.10686 | -95.36693 | 39980 ft | 376 kts | 261° |
| 2026-05-05 19:30 | 41.09823 | -95.43480 | 39985 ft | 376 kts | 261° |
| 2026-05-05 19:30 | 41.08950 | -95.50315 | 39985 ft | 376 kts | 261° |
| 2026-05-05 19:31 | 41.08072 | -95.57150 | 39986 ft | 376 kts | 261° |
| 2026-05-05 19:31 | 41.07190 | -95.63990 | 39987 ft | 376 kts | 261° |
| 2026-05-05 19:32 | 41.06303 | -95.70828 | 39989 ft | 376 kts | 261° |
| 2026-05-05 19:32 | 41.05413 | -95.77665 | 39987 ft | 376 kts | 261° |
| 2026-05-05 19:33 | 41.04519 | -95.84498 | 39985 ft | 377 kts | 261° |
| 2026-05-05 19:33 | 41.03619 | -95.91339 | 39991 ft | 377 kts | 261° |
| 2026-05-05 19:34 | 41.02716 | -95.98171 | 40001 ft | 377 kts | 261° |
| 2026-05-05 19:35 | 41.01359 | -96.08379 | 40000 ft | 377 kts | 261° |
| 2026-05-05 19:35 | 41.00444 | -96.15223 | 39997 ft | 378 kts | 260° |
| 2026-05-05 19:36 | 40.99524 | -96.22072 | 40000 ft | 378 kts | 260° |
| 2026-05-05 19:36 | 40.98600 | -96.28920 | 40000 ft | 378 kts | 260° |
| 2026-05-05 19:37 | 40.97672 | -96.35770 | 40004 ft | 378 kts | 260° |
| 2026-05-05 19:37 | 40.96739 | -96.42617 | 40005 ft | 378 kts | 260° |
| 2026-05-05 19:38 | 40.95802 | -96.49465 | 40006 ft | 379 kts | 260° |
| 2026-05-05 19:38 | 40.94859 | -96.56320 | 40010 ft | 379 kts | 260° |
| 2026-05-05 19:39 | 40.93912 | -96.63179 | 39993 ft | 379 kts | 260° |
| 2026-05-05 19:39 | 40.92963 | -96.70021 | 40017 ft | 377 kts | 260° |
| 2026-05-05 19:40 | 40.92038 | -96.76824 | 40018 ft | 377 kts | 261° |
| 2026-05-05 19:40 | 40.91378 | -96.83711 | 40017 ft | 377 kts | 263° |
| 2026-05-05 19:41 | 40.90797 | -96.90612 | 40016 ft | 378 kts | 263° |
| 2026-05-05 19:41 | 40.90174 | -96.97531 | 40018 ft | 379 kts | 262° |
| 2026-05-05 19:42 | 40.89516 | -97.04447 | 40019 ft | 379 kts | 262° |
| 2026-05-05 19:42 | 40.88847 | -97.11356 | 40020 ft | 379 kts | 262° |
| 2026-05-05 19:43 | 40.88173 | -97.18271 | 40023 ft | 379 kts | 262° |
| 2026-05-05 19:43 | 40.87497 | -97.25178 | 40023 ft | 379 kts | 262° |
| 2026-05-05 19:44 | 40.86822 | -97.32042 | 40027 ft | 379 kts | 262° |
| 2026-05-05 19:44 | 40.86138 | -97.38946 | 40026 ft | 379 kts | 262° |
| 2026-05-05 19:45 | 40.85450 | -97.45853 | 40026 ft | 379 kts | 262° |
| 2026-05-05 19:45 | 40.84915 | -97.51202 | 40018 ft | 379 kts | 262° |
| 2026-05-05 19:46 | 40.84219 | -97.58106 | 40019 ft | 379 kts | 262° |
| 2026-05-05 19:46 | 40.83525 | -97.64962 | 40018 ft | 380 kts | 262° |
| 2026-05-05 19:47 | 40.82819 | -97.71882 | 40017 ft | 380 kts | 262° |
| 2026-05-05 19:47 | 40.82109 | -97.78803 | 40019 ft | 380 kts | 262° |
| 2026-05-05 19:48 | 40.81396 | -97.85717 | 40028 ft | 380 kts | 262° |
| 2026-05-05 19:48 | 40.80678 | -97.92629 | 40027 ft | 380 kts | 261° |
| 2026-05-05 19:49 | 40.79956 | -97.99547 | 40030 ft | 380 kts | 261° |
| 2026-05-05 19:49 | 40.79227 | -98.06482 | 40028 ft | 382 kts | 261° |
| 2026-05-05 19:50 | 40.78493 | -98.13428 | 40030 ft | 382 kts | 261° |
| 2026-05-05 19:50 | 40.77756 | -98.20367 | 40048 ft | 382 kts | 261° |
| 2026-05-05 19:51 | 40.77014 | -98.27305 | 40048 ft | 382 kts | 261° |
| 2026-05-05 19:51 | 40.76268 | -98.34248 | 40054 ft | 382 kts | 261° |
| 2026-05-05 19:52 | 40.75524 | -98.41141 | 40054 ft | 382 kts | 261° |
| 2026-05-05 19:52 | 40.74768 | -98.48080 | 40045 ft | 382 kts | 261° |
| 2026-05-05 19:53 | 40.74008 | -98.55013 | 40050 ft | 382 kts | 261° |
| 2026-05-05 19:53 | 40.73244 | -98.61952 | 40055 ft | 382 kts | 261° |
| 2026-05-05 19:54 | 40.72476 | -98.68888 | 40059 ft | 382 kts | 261° |
| 2026-05-05 19:54 | 40.71704 | -98.75825 | 40061 ft | 383 kts | 261° |
| 2026-05-05 19:55 | 40.70926 | -98.82773 | 40065 ft | 383 kts | 261° |
| 2026-05-05 19:55 | 40.70149 | -98.89672 | 40064 ft | 383 kts | 261° |
| 2026-05-05 19:56 | 40.69362 | -98.96620 | 40063 ft | 383 kts | 261° |
| 2026-05-05 19:56 | 40.68571 | -99.03567 | 40064 ft | 383 kts | 261° |
| 2026-05-05 19:57 | 40.67777 | -99.10512 | 40070 ft | 383 kts | 260° |
| 2026-05-05 19:57 | 40.66978 | -99.17449 | 40065 ft | 383 kts | 260° |
| 2026-05-05 19:58 | 40.66175 | -99.24389 | 40066 ft | 383 kts | 260° |
| 2026-05-05 19:58 | 40.65368 | -99.31329 | 40060 ft | 383 kts | 260° |
| 2026-05-05 19:59 | 40.64556 | -99.38268 | 40070 ft | 383 kts | 260° |
| 2026-05-05 19:59 | 40.63741 | -99.45198 | 40069 ft | 383 kts | 260° |
| 2026-05-05 20:00 | 40.62926 | -99.52094 | 40071 ft | 384 kts | 260° |
| 2026-05-05 20:00 | 40.62102 | -99.59032 | 40073 ft | 384 kts | 260° |
| 2026-05-05 20:01 | 40.61271 | -99.65981 | 40071 ft | 384 kts | 260° |
| 2026-05-05 20:01 | 40.60439 | -99.72911 | 40069 ft | 384 kts | 260° |
| 2026-05-05 20:02 | 40.59600 | -99.79852 | 40069 ft | 384 kts | 260° |
| 2026-05-05 20:02 | 40.58759 | -99.86791 | 40063 ft | 385 kts | 259° |
| 2026-05-05 20:03 | 40.57908 | -99.93757 | 40063 ft | 386 kts | 259° |
| 2026-05-05 20:03 | 40.57053 | -100.00731 | 40060 ft | 386 kts | 259° |
| 2026-05-05 20:04 | 40.56200 | -100.07658 | 40053 ft | 386 kts | 259° |
| 2026-05-05 20:04 | 40.55336 | -100.14635 | 40055 ft | 386 kts | 259° |
| 2026-05-05 20:05 | 40.54468 | -100.21604 | 40057 ft | 386 kts | 259° |
| 2026-05-05 20:05 | 40.53595 | -100.28583 | 40055 ft | 388 kts | 259° |
| 2026-05-05 20:06 | 40.52715 | -100.35574 | 40065 ft | 388 kts | 259° |
| 2026-05-05 20:06 | 40.51829 | -100.42579 | 40064 ft | 388 kts | 259° |
| 2026-05-05 20:07 | 40.50941 | -100.49570 | 40063 ft | 388 kts | 259° |
| 2026-05-05 20:07 | 40.50048 | -100.56567 | 40061 ft | 388 kts | 259° |
| 2026-05-05 20:08 | 40.49154 | -100.63537 | 40064 ft | 390 kts | 259° |
| 2026-05-05 20:08 | 40.48248 | -100.70560 | 40063 ft | 390 kts | 259° |
| 2026-05-05 20:09 | 40.47337 | -100.77587 | 40063 ft | 390 kts | 259° |
| 2026-05-05 20:09 | 40.46422 | -100.84613 | 40062 ft | 390 kts | 259° |
| 2026-05-05 20:10 | 40.45502 | -100.91641 | 40065 ft | 390 kts | 259° |
| 2026-05-05 20:10 | 40.44572 | -100.98660 | 40064 ft | 390 kts | 258° |
| 2026-05-05 20:11 | 40.43619 | -101.05684 | 40060 ft | 390 kts | 258° |
| 2026-05-05 20:11 | 40.42664 | -101.12692 | 40062 ft | 390 kts | 258° |
| 2026-05-05 20:12 | 40.41713 | -101.19663 | 40061 ft | 390 kts | 258° |
| 2026-05-05 20:12 | 40.40747 | -101.26720 | 40056 ft | 390 kts | 258° |
| 2026-05-05 20:13 | 40.39789 | -101.33684 | 40051 ft | 391 kts | 258° |
| 2026-05-05 20:13 | 40.38820 | -101.40705 | 40053 ft | 392 kts | 258° |
| 2026-05-05 20:14 | 40.37844 | -101.47729 | 40052 ft | 392 kts | 258° |
| 2026-05-05 20:14 | 40.36926 | -101.54312 | 40048 ft | 392 kts | 258° |
| 2026-05-05 20:15 | 40.35942 | -101.61337 | 40047 ft | 392 kts | 258° |
| 2026-05-05 20:15 | 40.34955 | -101.68356 | 40047 ft | 392 kts | 258° |
| 2026-05-05 20:16 | 40.33960 | -101.75393 | 40052 ft | 393 kts | 258° |
| 2026-05-05 20:16 | 40.32958 | -101.82448 | 40051 ft | 394 kts | 258° |
| 2026-05-05 20:17 | 40.31950 | -101.89510 | 40053 ft | 394 kts | 258° |
| 2026-05-05 20:17 | 40.30939 | -101.96570 | 40054 ft | 394 kts | 258° |
| 2026-05-05 20:18 | 40.29923 | -102.03622 | 40061 ft | 394 kts | 258° |
| 2026-05-05 20:18 | 40.28901 | -102.10690 | 40059 ft | 396 kts | 257° |
| 2026-05-05 20:19 | 40.27870 | -102.17785 | 40057 ft | 397 kts | 257° |
| 2026-05-05 20:19 | 40.26842 | -102.24834 | 40056 ft | 397 kts | 257° |
| 2026-05-05 20:20 | 40.25801 | -102.31937 | 40054 ft | 397 kts | 257° |
| 2026-05-05 20:20 | 40.24755 | -102.39040 | 40048 ft | 397 kts | 257° |
| 2026-05-05 20:21 | 40.23705 | -102.46144 | 40044 ft | 398 kts | 257° |
| 2026-05-05 20:21 | 40.22647 | -102.53270 | 40035 ft | 399 kts | 257° |
| 2026-05-05 20:22 | 40.21585 | -102.60383 | 40034 ft | 398 kts | 257° |
| 2026-05-05 20:22 | 40.20522 | -102.67480 | 40031 ft | 397 kts | 257° |
| 2026-05-05 20:23 | 40.19453 | -102.74579 | 40033 ft | 397 kts | 257° |
| 2026-05-05 20:23 | 40.18381 | -102.81668 | 40027 ft | 398 kts | 257° |
| 2026-05-05 20:24 | 40.17298 | -102.88796 | 40024 ft | 399 kts | 257° |
| 2026-05-05 20:24 | 40.16212 | -102.95920 | 40017 ft | 399 kts | 257° |
| 2026-05-05 20:25 | 40.15129 | -103.02995 | 40019 ft | 399 kts | 257° |
| 2026-05-05 20:25 | 40.14034 | -103.10113 | 40013 ft | 400 kts | 257° |
| 2026-05-05 20:26 | 40.12932 | -103.17242 | 40028 ft | 401 kts | 257° |
| 2026-05-05 20:26 | 40.11822 | -103.24394 | 40027 ft | 402 kts | 257° |
| 2026-05-05 20:27 | 40.10706 | -103.31558 | 40028 ft | 402 kts | 257° |
| 2026-05-05 20:27 | 40.09585 | -103.38722 | 40021 ft | 403 kts | 257° |
| 2026-05-05 20:28 | 40.08460 | -103.45886 | 40018 ft | 403 kts | 257° |
| 2026-05-05 20:28 | 40.07328 | -103.53054 | 39995 ft | 403 kts | 257° |
| 2026-05-05 20:29 | 40.06191 | -103.60231 | 39997 ft | 404 kts | 257° |
| 2026-05-05 20:29 | 40.05047 | -103.67420 | 39989 ft | 404 kts | 257° |
| 2026-05-05 20:30 | 40.03905 | -103.74564 | 39988 ft | 404 kts | 256° |
| 2026-05-05 20:30 | 40.02752 | -103.81746 | 39984 ft | 404 kts | 256° |
| 2026-05-05 20:31 | 40.01596 | -103.88920 | 39987 ft | 404 kts | 256° |
| 2026-05-05 20:31 | 40.00630 | -103.94889 | 39982 ft | 405 kts | 256° |
| 2026-05-05 20:32 | 39.99462 | -104.02083 | 39983 ft | 405 kts | 256° |
| 2026-05-05 20:32 | 39.98289 | -104.09278 | 39978 ft | 405 kts | 256° |
| 2026-05-05 20:33 | 39.97112 | -104.16467 | 39981 ft | 405 kts | 256° |
| 2026-05-05 20:33 | 39.95931 | -104.23648 | 39975 ft | 406 kts | 256° |
| 2026-05-05 20:34 | 39.94738 | -104.30870 | 39993 ft | 409 kts | 256° |
| 2026-05-05 20:34 | 39.93536 | -104.38122 | 39997 ft | 409 kts | 256° |
| 2026-05-05 20:35 | 39.92337 | -104.45325 | 40007 ft | 409 kts | 256° |
| 2026-05-05 20:35 | 39.91119 | -104.52618 | 40003 ft | 409 kts | 256° |
| 2026-05-05 20:36 | 39.89910 | -104.59819 | 40004 ft | 409 kts | 256° |
| 2026-05-05 20:36 | 39.88657 | -104.67051 | 40004 ft | 409 kts | 255° |
| 2026-05-05 20:37 | 39.87273 | -104.74231 | 40009 ft | 409 kts | 255° |
| 2026-05-05 20:37 | 39.85868 | -104.81410 | 40004 ft | 409 kts | 255° |
| 2026-05-05 20:38 | 39.84478 | -104.88592 | 39990 ft | 409 kts | 255° |
| 2026-05-05 20:38 | 39.83093 | -104.95781 | 39980 ft | 410 kts | 255° |
| 2026-05-05 20:39 | 39.81700 | -105.02999 | 40011 ft | 412 kts | 255° |
| 2026-05-05 20:39 | 39.80299 | -105.10233 | 40014 ft | 412 kts | 255° |
| 2026-05-05 20:40 | 39.78895 | -105.17449 | 40011 ft | 412 kts | 255° |
| 2026-05-05 20:40 | 39.77485 | -105.24675 | 40001 ft | 412 kts | 255° |
| 2026-05-05 20:41 | 39.76070 | -105.31901 | 39991 ft | 414 kts | 255° |
| 2026-05-05 20:41 | 39.74641 | -105.39161 | 39956 ft | 415 kts | 254° |
| 2026-05-05 20:42 | 39.73207 | -105.46423 | 39941 ft | 415 kts | 255° |
| 2026-05-05 20:42 | 39.71767 | -105.53684 | 39850 ft | 415 kts | 254° |
| 2026-05-05 20:43 | 39.70336 | -105.60897 | 39861 ft | 415 kts | 254° |
| 2026-05-05 20:43 | 39.68890 | -105.68160 | 39779 ft | 415 kts | 255° |
| 2026-05-05 20:44 | 39.67440 | -105.75410 | 39786 ft | 415 kts | 255° |
| 2026-05-05 20:44 | 39.65982 | -105.82666 | 39719 ft | 416 kts | 255° |
| 2026-05-05 20:45 | 39.63787 | -105.93554 | 39682 ft | 415 kts | 254° |
| 2026-05-05 20:45 | 39.62419 | -106.00304 | 39676 ft | 415 kts | 254° |
| 2026-05-05 20:46 | 39.60940 | -106.07573 | 39656 ft | 417 kts | 254° |
| 2026-05-05 20:46 | 39.59454 | -106.14856 | 39656 ft | 418 kts | 254° |
| 2026-05-05 20:47 | 39.57961 | -106.22139 | 39656 ft | 418 kts | 254° |
| 2026-05-05 20:47 | 39.56468 | -106.29411 | 39655 ft | 418 kts | 254° |
| 2026-05-05 20:48 | 39.54969 | -106.36685 | 39659 ft | 419 kts | 254° |
| 2026-05-05 20:48 | 39.53465 | -106.43961 | 39671 ft | 422 kts | 254° |
| 2026-05-05 20:49 | 39.51942 | -106.51300 | 39678 ft | 422 kts | 254° |
| 2026-05-05 20:49 | 39.50408 | -106.58648 | 39679 ft | 422 kts | 254° |
| 2026-05-05 20:50 | 39.48877 | -106.65973 | 39684 ft | 422 kts | 254° |
| 2026-05-05 20:50 | 39.47340 | -106.73307 | 39683 ft | 424 kts | 254° |
| 2026-05-05 20:51 | 39.45785 | -106.80703 | 39673 ft | 426 kts | 253° |
| 2026-05-05 20:51 | 39.44220 | -106.88096 | 39760 ft | 426 kts | 253° |
| 2026-05-05 20:52 | 39.42552 | -106.95457 | 39747 ft | 426 kts | 251° |
| 2026-05-05 20:52 | 39.40693 | -107.02731 | 39742 ft | 426 kts | 251° |
| 2026-05-05 20:53 | 39.38814 | -107.10021 | 39711 ft | 428 kts | 251° |
| 2026-05-05 20:53 | 39.36964 | -107.17310 | 39677 ft | 430 kts | 251° |
| 2026-05-05 20:54 | 39.35101 | -107.24701 | 39659 ft | 431 kts | 251° |
| 2026-05-05 20:54 | 39.33258 | -107.32004 | 39658 ft | 430 kts | 251° |
| 2026-05-05 20:55 | 39.31396 | -107.39353 | 39660 ft | 430 kts | 251° |
| 2026-05-05 20:55 | 39.29520 | -107.46730 | 39673 ft | 433 kts | 251° |
| 2026-05-05 20:56 | 39.27632 | -107.54127 | 39671 ft | 434 kts | 251° |
| 2026-05-05 20:56 | 39.25738 | -107.61530 | 39675 ft | 434 kts | 251° |
| 2026-05-05 20:57 | 39.23840 | -107.68926 | 39674 ft | 434 kts | 251° |
| 2026-05-05 20:57 | 39.21948 | -107.76281 | 39663 ft | 435 kts | 251° |
| 2026-05-05 20:58 | 39.20029 | -107.83710 | 39672 ft | 438 kts | 251° |
| 2026-05-05 20:58 | 39.18100 | -107.91163 | 39669 ft | 438 kts | 251° |
| 2026-05-05 20:59 | 39.16165 | -107.98610 | 39669 ft | 439 kts | 251° |
| 2026-05-05 20:59 | 39.14225 | -108.06055 | 39660 ft | 438 kts | 251° |
| 2026-05-05 21:00 | 39.12279 | -108.13499 | 39676 ft | 438 kts | 251° |
| 2026-05-05 21:00 | 39.10331 | -108.20934 | 39709 ft | 437 kts | 251° |
| 2026-05-05 21:01 | 39.08397 | -108.28296 | 39735 ft | 438 kts | 251° |
| 2026-05-05 21:01 | 39.06436 | -108.35731 | 39764 ft | 438 kts | 251° |
| 2026-05-05 21:02 | 39.04473 | -108.43155 | 39792 ft | 438 kts | 251° |
| 2026-05-05 21:02 | 39.02499 | -108.50600 | 39790 ft | 441 kts | 251° |
| 2026-05-05 21:03 | 39.00511 | -108.58076 | 39776 ft | 442 kts | 251° |
| 2026-05-05 21:03 | 38.98513 | -108.65563 | 39751 ft | 442 kts | 251° |
| 2026-05-05 21:04 | 38.96526 | -108.72990 | 39724 ft | 442 kts | 251° |
| 2026-05-05 21:04 | 38.94663 | -108.79936 | 39646 ft | 443 kts | 251° |
| 2026-05-05 21:05 | 38.92639 | -108.87458 | 39655 ft | 446 kts | 251° |
| 2026-05-05 21:05 | 38.90605 | -108.94994 | 39652 ft | 447 kts | 250° |
| 2026-05-05 21:06 | 38.88566 | -109.02531 | 39663 ft | 445 kts | 250° |
| 2026-05-05 21:06 | 38.86534 | -109.10014 | 39661 ft | 444 kts | 250° |
| 2026-05-05 21:07 | 38.84494 | -109.17505 | 39661 ft | 446 kts | 250° |
| 2026-05-05 21:07 | 38.82437 | -109.25037 | 39659 ft | 448 kts | 250° |
| 2026-05-05 21:08 | 38.80371 | -109.32579 | 39658 ft | 448 kts | 250° |
| 2026-05-05 21:08 | 38.78303 | -109.40114 | 39654 ft | 448 kts | 250° |
| 2026-05-05 21:09 | 38.76242 | -109.47594 | 39653 ft | 448 kts | 250° |
| 2026-05-05 21:09 | 38.74153 | -109.55152 | 39654 ft | 451 kts | 250° |
| 2026-05-05 21:10 | 38.72050 | -109.62741 | 39656 ft | 452 kts | 250° |
| 2026-05-05 21:10 | 38.69942 | -109.70326 | 39803 ft | 452 kts | 250° |
| 2026-05-05 21:11 | 38.67828 | -109.77914 | 39804 ft | 452 kts | 250° |
| 2026-05-05 21:11 | 38.66770 | -109.81705 | 39652 ft | 452 kts | 250° |
| 2026-05-05 21:11 | 38.65708 | -109.85501 | 39654 ft | 455 kts | 250° |
| 2026-05-05 21:12 | 38.63570 | -109.93127 | 39653 ft | 456 kts | 250° |
| 2026-05-05 21:12 | 38.61423 | -110.00764 | 39662 ft | 457 kts | 250° |
| 2026-05-05 21:13 | 38.59267 | -110.08408 | 39655 ft | 457 kts | 250° |
| 2026-05-05 21:13 | 38.57110 | -110.16036 | 39655 ft | 457 kts | 250° |
| 2026-05-05 21:14 | 38.54938 | -110.23697 | 39659 ft | 460 kts | 250° |
| 2026-05-05 21:14 | 38.52752 | -110.31386 | 39658 ft | 460 kts | 250° |
| 2026-05-05 21:15 | 38.50561 | -110.39066 | 39662 ft | 460 kts | 250° |
| 2026-05-05 21:15 | 38.48378 | -110.46695 | 39662 ft | 460 kts | 250° |
| 2026-05-05 21:16 | 38.46172 | -110.54384 | 39661 ft | 463 kts | 250° |
| 2026-05-05 21:16 | 38.43951 | -110.62107 | 39664 ft | 464 kts | 250° |
| 2026-05-05 21:17 | 38.42765 | -110.65934 | 39841 ft | 464 kts | 245° |
| 2026-05-05 21:17 | 38.41243 | -110.69557 | 39841 ft | 464 kts | 238° |
| 2026-05-05 21:17 | 38.37159 | -110.75948 | 39841 ft | 465 kts | 228° |
| 2026-05-05 21:18 | 38.33422 | -110.80874 | 39822 ft | 464 kts | 226° |
| 2026-05-05 21:18 | 38.28856 | -110.86713 | 39784 ft | 466 kts | 226° |
| 2026-05-05 21:19 | 38.24283 | -110.92577 | 39745 ft | 467 kts | 226° |
| 2026-05-05 21:19 | 38.19715 | -110.98468 | 39708 ft | 467 kts | 226° |
| 2026-05-05 21:20 | 38.15157 | -111.04351 | 39694 ft | 467 kts | 226° |
| 2026-05-05 21:20 | 38.10598 | -111.10228 | 39693 ft | 467 kts | 226° |
| 2026-05-05 21:21 | 38.06062 | -111.16060 | 39709 ft | 467 kts | 226° |
| 2026-05-05 21:21 | 38.01499 | -111.21915 | 39709 ft | 466 kts | 226° |
| 2026-05-05 21:22 | 37.96938 | -111.27758 | 39715 ft | 466 kts | 226° |
| 2026-05-05 21:22 | 37.92369 | -111.33599 | 39715 ft | 466 kts | 226° |
| 2026-05-05 21:23 | 37.87803 | -111.39425 | 39712 ft | 466 kts | 226° |
| 2026-05-05 21:23 | 37.83231 | -111.45249 | 39722 ft | 466 kts | 226° |
| 2026-05-05 21:24 | 37.78648 | -111.51075 | 39725 ft | 466 kts | 226° |
| 2026-05-05 21:24 | 37.74086 | -111.56864 | 39737 ft | 464 kts | 226° |
| 2026-05-05 21:25 | 37.69537 | -111.62627 | 39731 ft | 463 kts | 226° |
| 2026-05-05 21:25 | 37.64987 | -111.68380 | 39730 ft | 463 kts | 226° |
| 2026-05-05 21:26 | 37.60440 | -111.74118 | 39750 ft | 463 kts | 226° |
| 2026-05-05 21:26 | 37.55888 | -111.79852 | 39782 ft | 463 kts | 226° |
| 2026-05-05 21:27 | 37.51331 | -111.85618 | 39789 ft | 465 kts | 228° |
| 2026-05-05 21:27 | 37.47304 | -111.91922 | 39796 ft | 464 kts | 233° |
| 2026-05-05 21:28 | 37.43471 | -111.98425 | 39799 ft | 462 kts | 234° |
| 2026-05-05 21:28 | 37.39677 | -112.04943 | 39782 ft | 461 kts | 234° |
| 2026-05-05 21:29 | 37.35880 | -112.11448 | 39773 ft | 461 kts | 234° |
| 2026-05-05 21:29 | 37.32071 | -112.17955 | 39765 ft | 464 kts | 234° |
| 2026-05-05 21:30 | 37.28229 | -112.24493 | 39776 ft | 465 kts | 234° |
| 2026-05-05 21:30 | 37.24381 | -112.31032 | 39777 ft | 466 kts | 234° |
| 2026-05-05 21:31 | 37.20527 | -112.37569 | 39786 ft | 466 kts | 234° |
| 2026-05-05 21:31 | 37.16671 | -112.44097 | 39785 ft | 466 kts | 233° |
| 2026-05-05 21:32 | 37.12811 | -112.50617 | 39792 ft | 466 kts | 233° |
| 2026-05-05 21:32 | 37.08946 | -112.57134 | 39793 ft | 466 kts | 233° |
| 2026-05-05 21:33 | 37.05079 | -112.63643 | 39822 ft | 466 kts | 233° |
| 2026-05-05 21:33 | 37.01207 | -112.70157 | 39859 ft | 466 kts | 233° |
| 2026-05-05 21:34 | 36.97330 | -112.76662 | 39893 ft | 466 kts | 233° |
| 2026-05-05 21:34 | 36.93446 | -112.83166 | 39927 ft | 468 kts | 233° |
| 2026-05-05 21:35 | 36.89568 | -112.89650 | 39947 ft | 469 kts | 233° |
| 2026-05-05 21:35 | 36.85657 | -112.96178 | 39947 ft | 469 kts | 233° |
| 2026-05-05 21:36 | 36.81738 | -113.02705 | 39930 ft | 469 kts | 233° |
| 2026-05-05 21:36 | 36.77828 | -113.09204 | 39893 ft | 467 kts | 233° |
| 2026-05-05 21:37 | 36.73924 | -113.15681 | 39864 ft | 468 kts | 233° |
| 2026-05-05 21:37 | 36.69997 | -113.22184 | 39828 ft | 469 kts | 233° |
| 2026-05-05 21:38 | 36.66067 | -113.28681 | 39807 ft | 469 kts | 233° |
| 2026-05-05 21:38 | 36.62134 | -113.35172 | 39808 ft | 469 kts | 233° |
| 2026-05-05 21:39 | 36.58322 | -113.41765 | 39815 ft | 469 kts | 235° |
| 2026-05-05 21:39 | 36.54584 | -113.48449 | 39817 ft | 471 kts | 235° |
| 2026-05-05 21:40 | 36.50819 | -113.55138 | 39822 ft | 472 kts | 235° |
| 2026-05-05 21:40 | 36.47030 | -113.61802 | 39821 ft | 472 kts | 234° |
| 2026-05-05 21:41 | 36.43262 | -113.68396 | 39817 ft | 470 kts | 234° |
| 2026-05-05 21:41 | 36.39481 | -113.74999 | 39822 ft | 469 kts | 234° |
| 2026-05-05 21:42 | 36.35691 | -113.81610 | 39813 ft | 471 kts | 234° |
| 2026-05-05 21:42 | 36.31890 | -113.88227 | 39806 ft | 471 kts | 234° |
| 2026-05-05 21:43 | 36.28080 | -113.94845 | 39806 ft | 471 kts | 234° |
| 2026-05-05 21:43 | 36.24269 | -114.01454 | 39794 ft | 471 kts | 234° |
| 2026-05-05 21:44 | 36.20451 | -114.08062 | 39805 ft | 471 kts | 234° |
| 2026-05-05 21:44 | 36.16616 | -114.14686 | 39793 ft | 474 kts | 234° |
| 2026-05-05 21:45 | 36.12767 | -114.21323 | 39793 ft | 474 kts | 234° |
| 2026-05-05 21:45 | 36.08885 | -114.27915 | 39783 ft | 474 kts | 231° |
| 2026-05-05 21:46 | 36.04626 | -114.34054 | 39790 ft | 471 kts | 229° |
| 2026-05-05 21:46 | 36.00274 | -114.40098 | 39793 ft | 471 kts | 229° |
| 2026-05-05 21:47 | 35.95890 | -114.46139 | 39800 ft | 473 kts | 229° |
| 2026-05-05 21:47 | 35.91501 | -114.52185 | 39817 ft | 473 kts | 229° |
| 2026-05-05 21:48 | 35.87105 | -114.58242 | 39832 ft | 473 kts | 229° |
| 2026-05-05 21:48 | 35.82744 | -114.64244 | 39842 ft | 473 kts | 229° |
| 2026-05-05 21:49 | 35.78348 | -114.70284 | 39841 ft | 473 kts | 229° |
| 2026-05-05 21:49 | 35.73947 | -114.76319 | 39841 ft | 473 kts | 229° |
| 2026-05-05 21:50 | 35.69544 | -114.82345 | 39875 ft | 473 kts | 229° |
| 2026-05-05 21:50 | 35.65315 | -114.88127 | 39876 ft | 473 kts | 229° |
| 2026-05-05 21:51 | 35.60913 | -114.94150 | 39875 ft | 473 kts | 229° |
| 2026-05-05 21:51 | 35.56511 | -115.00162 | 39877 ft | 473 kts | 229° |
| 2026-05-05 21:52 | 35.49878 | -115.09204 | 39890 ft | 476 kts | 229° |
| 2026-05-05 21:53 | 35.45347 | -115.15131 | 39895 ft | 476 kts | 227° |
| 2026-05-05 21:53 | 35.40811 | -115.21018 | 39904 ft | 473 kts | 227° |
| 2026-05-05 21:54 | 35.36310 | -115.26874 | 39922 ft | 472 kts | 227° |
| 2026-05-05 21:54 | 35.31812 | -115.32723 | 39919 ft | 472 kts | 227° |
| 2026-05-05 21:55 | 35.27296 | -115.38588 | 39918 ft | 474 kts | 227° |
| 2026-05-05 21:55 | 35.22798 | -115.44421 | 39936 ft | 475 kts | 227° |
| 2026-05-05 21:56 | 35.18260 | -115.50294 | 39931 ft | 475 kts | 227° |
| 2026-05-05 21:56 | 35.13721 | -115.56159 | 39938 ft | 475 kts | 227° |
| 2026-05-05 21:57 | 35.09182 | -115.61998 | 39935 ft | 472 kts | 227° |
| 2026-05-05 21:57 | 35.04652 | -115.67782 | 39930 ft | 472 kts | 227° |
| 2026-05-05 21:58 | 35.00101 | -115.73588 | 39933 ft | 474 kts | 227° |
| 2026-05-05 21:58 | 34.95544 | -115.79396 | 39927 ft | 474 kts | 227° |
| 2026-05-05 21:59 | 34.91009 | -115.85164 | 39923 ft | 474 kts | 227° |
| 2026-05-05 21:59 | 34.86446 | -115.90960 | 39912 ft | 474 kts | 227° |
| 2026-05-05 22:00 | 34.81874 | -115.96756 | 39912 ft | 474 kts | 227° |
| 2026-05-05 22:00 | 34.77301 | -116.02545 | 39904 ft | 473 kts | 227° |
| 2026-05-05 22:01 | 34.72764 | -116.08326 | 39906 ft | 472 kts | 227° |
| 2026-05-05 22:01 | 34.68231 | -116.14099 | 39901 ft | 472 kts | 227° |
| 2026-05-05 22:02 | 34.63701 | -116.19856 | 39905 ft | 472 kts | 227° |
| 2026-05-05 22:02 | 34.59157 | -116.25621 | 39903 ft | 472 kts | 227° |
| 2026-05-05 22:03 | 34.54616 | -116.31373 | 39905 ft | 472 kts | 227° |
| 2026-05-05 22:03 | 34.50091 | -116.37093 | 39913 ft | 473 kts | 227° |
| 2026-05-05 22:04 | 34.45541 | -116.42837 | 39904 ft | 471 kts | 227° |
| 2026-05-05 22:04 | 34.41335 | -116.48865 | 39910 ft | 467 kts | 239° |
| 2026-05-05 22:05 | 34.38800 | -116.54621 | 39918 ft | 466 kts | 244° |
| 2026-05-05 22:05 | 34.35922 | -116.61660 | 39916 ft | 467 kts | 244° |
| 2026-05-05 22:06 | 34.33032 | -116.68691 | 39819 ft | 463 kts | 244° |
| 2026-05-05 22:06 | 34.31621 | -116.72191 | 39146 ft | 464 kts | 245° |
| 2026-05-05 22:06 | 34.30207 | -116.75725 | 38279 ft | 470 kts | 245° |
| 2026-05-05 22:06 | 34.28775 | -116.79298 | 37296 ft | 474 kts | 245° |
| 2026-05-05 22:07 | 34.27327 | -116.82898 | 36392 ft | 478 kts | 245° |
| 2026-05-05 22:07 | 34.25876 | -116.86497 | 35395 ft | 474 kts | 245° |
| 2026-05-05 22:07 | 34.24434 | -116.90070 | 34099 ft | 473 kts | 245° |
| 2026-05-05 22:07 | 34.22989 | -116.93646 | 32631 ft | 473 kts | 245° |
| 2026-05-05 22:08 | 34.21556 | -116.97217 | 31267 ft | 471 kts | 246° |
| 2026-05-05 22:08 | 34.20407 | -117.00864 | 30433 ft | 457 kts | 253° |
| 2026-05-05 22:08 | 34.19423 | -117.04470 | 29457 ft | 447 kts | 254° |
| 2026-05-05 22:08 | 34.18471 | -117.08012 | 28377 ft | 438 kts | 254° |
| 2026-05-05 22:09 | 34.17538 | -117.11476 | 27344 ft | 430 kts | 253° |
| 2026-05-05 22:09 | 34.16620 | -117.14876 | 26332 ft | 423 kts | 255° |
| 2026-05-05 22:09 | 34.15711 | -117.18221 | 25327 ft | 417 kts | 254° |
| 2026-05-05 22:09 | 34.14804 | -117.21523 | 24463 ft | 410 kts | 254° |
| 2026-05-05 22:10 | 34.13908 | -117.24771 | 23488 ft | 405 kts | 254° |
| 2026-05-05 22:10 | 34.13026 | -117.27972 | 22410 ft | 399 kts | 253° |
| 2026-05-05 22:10 | 34.12158 | -117.31116 | 21415 ft | 391 kts | 253° |
| 2026-05-05 22:10 | 34.11305 | -117.34204 | 20435 ft | 385 kts | 253° |
| 2026-05-05 22:11 | 34.10484 | -117.37256 | 19504 ft | 383 kts | 254° |
| 2026-05-05 22:11 | 34.09666 | -117.40389 | 18693 ft | 395 kts | 255° |
| 2026-05-05 22:11 | 34.08894 | -117.43469 | 18261 ft | 372 kts | 255° |
| 2026-05-05 22:11 | 34.08168 | -117.46389 | 17582 ft | 357 kts | 255° |
| 2026-05-05 22:12 | 34.07461 | -117.49236 | 16729 ft | 350 kts | 255° |
| 2026-05-05 22:12 | 34.06771 | -117.52004 | 15945 ft | 341 kts | 255° |
| 2026-05-05 22:12 | 34.06080 | -117.54719 | 15092 ft | 336 kts | 254° |
| 2026-05-05 22:12 | 34.05392 | -117.57401 | 14221 ft | 333 kts | 254° |
| 2026-05-05 22:13 | 34.04714 | -117.60043 | 13354 ft | 327 kts | 255° |
| 2026-05-05 22:13 | 34.04047 | -117.62645 | 12352 ft | 324 kts | 255° |
| 2026-05-05 22:13 | 34.03390 | -117.65210 | 11343 ft | 324 kts | 255° |
| 2026-05-05 22:13 | 34.02728 | -117.67786 | 10579 ft | 318 kts | 256° |
| 2026-05-05 22:14 | 34.02185 | -117.70292 | 10115 ft | 299 kts | 263° |
| 2026-05-05 22:14 | 34.01898 | -117.72754 | 9671 ft | 294 kts | 266° |
| 2026-05-05 22:14 | 34.01668 | -117.75183 | 9303 ft | 290 kts | 266° |
| 2026-05-05 22:14 | 34.01440 | -117.77609 | 8998 ft | 285 kts | 266° |
| 2026-05-05 22:15 | 34.01216 | -117.79976 | 8624 ft | 284 kts | 265° |
| 2026-05-05 22:15 | 34.00989 | -117.82305 | 8313 ft | 284 kts | 265° |
| 2026-05-05 22:15 | 34.00754 | -117.84659 | 8013 ft | 280 kts | 265° |
| 2026-05-05 22:15 | 34.00531 | -117.87013 | 7646 ft | 277 kts | 265° |
| 2026-05-05 22:16 | 34.00311 | -117.89281 | 7325 ft | 276 kts | 264° |
| 2026-05-05 22:16 | 34.00086 | -117.91577 | 7056 ft | 274 kts | 264° |
| 2026-05-05 22:16 | 33.99867 | -117.93855 | 6726 ft | 273 kts | 264° |
| 2026-05-05 22:16 | 33.99644 | -117.96117 | 6389 ft | 270 kts | 263° |
| 2026-05-05 22:17 | 33.99423 | -117.98359 | 6087 ft | 267 kts | 263° |
| 2026-05-05 22:17 | 33.99205 | -118.00575 | 5847 ft | 266 kts | 263° |
| 2026-05-05 22:17 | 33.98982 | -118.02779 | 5472 ft | 264 kts | 263° |
| 2026-05-05 22:17 | 33.98762 | -118.04968 | 5108 ft | 262 kts | 263° |
| 2026-05-05 22:18 | 33.98551 | -118.07129 | 4873 ft | 257 kts | 263° |
| 2026-05-05 22:18 | 33.98336 | -118.09291 | 4308 ft | 262 kts | 262° |
| 2026-05-05 22:18 | 33.98119 | -118.11460 | 4008 ft | 255 kts | 262° |
| 2026-05-05 22:18 | 33.97923 | -118.13526 | 3872 ft | 241 kts | 263° |
| 2026-05-05 22:19 | 33.97741 | -118.15465 | 3641 ft | 226 kts | 262° |
| 2026-05-05 22:19 | 33.97559 | -118.17273 | 3484 ft | 210 kts | 261° |
| 2026-05-05 22:19 | 33.97388 | -118.18962 | 3291 ft | 196 kts | 262° |
| 2026-05-05 22:19 | 33.97228 | -118.20548 | 3166 ft | 185 kts | 261° |
| 2026-05-05 22:20 | 33.97078 | -118.22039 | 2992 ft | 175 kts | 261° |
| 2026-05-05 22:20 | 33.96936 | -118.23441 | 2863 ft | 163 kts | 261° |
| 2026-05-05 22:20 | 33.96800 | -118.24750 | 2686 ft | 154 kts | 260° |
| 2026-05-05 22:20 | 33.96669 | -118.26004 | 2471 ft | 147 kts | 261° |
| 2026-05-05 22:21 | 33.96546 | -118.27205 | 2277 ft | 144 kts | 261° |
| 2026-05-05 22:21 | 33.96424 | -118.28391 | 2081 ft | 143 kts | 261° |
| 2026-05-05 22:21 | 33.96303 | -118.29570 | 1903 ft | 139 kts | 259° |
| 2026-05-05 22:21 | 33.96191 | -118.30673 | 1704 ft | 129 kts | 259° |
| 2026-05-05 22:22 | 33.96083 | -118.31711 | 1525 ft | 122 kts | 260° |
| 2026-05-05 22:22 | 33.95978 | -118.32745 | 1381 ft | 123 kts | 258° |
| 2026-05-05 22:22 | 33.95873 | -118.33750 | 1216 ft | 124 kts | 259° |
| 2026-05-05 22:22 | 33.95765 | -118.34791 | 1042 ft | 127 kts | 261° |
| 2026-05-05 22:23 | 33.95655 | -118.35868 | 850 ft | 132 kts | 261° |
| 2026-05-05 22:23 | 33.95542 | -118.36965 | 663 ft | 130 kts | 262° |
| 2026-05-05 22:23 | 33.95436 | -118.38011 | 484 ft | 123 kts | 262° |
| 2026-05-05 22:23 | 33.95330 | -118.39033 | 330 ft | 123 kts | 261° |
| 2026-05-05 22:24 | 33.95222 | -118.40056 | 162 ft | 122 kts | 262° |
| 2026-05-05 22:24 | 33.95124 | -118.41027 | 99 ft | 99 kts | 263° |
| 2026-05-05 22:24 | 33.95060 | -118.41653 | 103 ft | 57 kts | 263° |
| 2026-05-05 22:24 | 33.95020 | -118.42033 | 101 ft | 31 kts | 255° |
| 2026-05-05 22:25 | 33.94926 | -118.42221 | 103 ft | 24 kts | 226° |
| 2026-05-05 22:25 | 33.94791 | -118.42298 | 103 ft | 20 kts | 181° |
| 2026-05-05 22:25 | 33.94711 | -118.42288 | 103 ft | 7 kts | 171° |
| 2026-05-05 22:25 | 33.94681 | -118.42242 | 103 ft | 8 kts | 87° |
| 2026-05-05 22:26 | 33.94687 | -118.42158 | 103 ft | 12 kts | 81° |
| 2026-05-05 22:26 | 33.94698 | -118.42048 | 103 ft | 15 kts | 83° |
| 2026-05-05 22:26 | 33.94711 | -118.41908 | 100 ft | 19 kts | 82° |
| 2026-05-05 22:26 | 33.94730 | -118.41741 | 103 ft | 22 kts | 82° |
| 2026-05-05 22:27 | 33.94748 | -118.41572 | 103 ft | 17 kts | 82° |
| 2026-05-05 22:27 | 33.94769 | -118.41416 | 101 ft | 20 kts | 77° |
| 2026-05-05 22:27 | 33.94799 | -118.41238 | 102 ft | 23 kts | 82° |
| 2026-05-05 22:27 | 33.94817 | -118.41036 | 104 ft | 26 kts | 84° |
| 2026-05-05 22:28 | 33.94838 | -118.40827 | 101 ft | 22 kts | 82° |
| 2026-05-05 22:28 | 33.94851 | -118.40708 | 101 ft | 11 kts | 83° |
| 2026-05-05 22:28 | 33.94857 | -118.40629 | 100 ft | 5 kts | 96° |
| 2026-05-05 22:28 | 33.94830 | -118.40603 | 100 ft | 7 kts | 159° |
| 2026-05-05 22:29 | 33.94772 | -118.40584 | 100 ft | 11 kts | 169° |
| 2026-05-05 22:29 | 33.94716 | -118.40575 | 101 ft | 0 kts | 173° |
| 2026-05-05 22:30 | 33.94711 | -118.40570 | 101 ft | 3 kts | 146° |
| 2026-05-05 22:30 | 33.94713 | -118.40550 | 103 ft | 1 kts | 62° |
| 2026-05-05 22:31 | 33.94723 | -118.40534 | 102 ft | 4 kts | 60° |
| 2026-05-05 22:31 | 33.94724 | -118.40507 | 103 ft | 4 kts | 99° |
| 2026-05-05 22:31 | 33.94719 | -118.40497 | 102 ft | 0 kts | 117° |
| 2026-05-05 22:32 | 33.94723 | -118.40494 | 102 ft | 0 kts | 132° |
| 2026-05-05 22:39 | 33.94722 | -118.40493 | 102 ft | 0 kts | 132° |
| 2026-05-05 22:39 | 33.94719 | -118.40488 | 102 ft | 0 kts | 132° |